Time;durP1;ratioP1;P1;durP2;ratioP2;P2;SDS_P1;SDS_P2;PMS_P1;PMS_P2;Temp;Humidity;BMP_temperature;BMP_pressure;BME280_temperature;BME280_humidity;BME280_pressure;Samples;Min_cycle;Max_cycle;Signal;HPM_P1;HPM_P2
2022/05/08 00:02:07;;;;;;;21.33;7.03;;;14.90;99.90;;;;;;5043370;28;20037;-75
2022/05/08 00:04:33;;;;;;;15.10;6.55;;;14.80;99.90;;;;;;5041456;28;20025;-76
2022/05/08 00:06:59;;;;;;;15.30;6.15;;;14.80;99.90;;;;;;5041894;28;20048;-76
2022/05/08 00:09:25;;;;;;;13.65;7.13;;;14.70;99.90;;;;;;5043277;28;20075;-77
2022/05/08 00:11:52;;;;;;;16.15;6.68;;;14.70;99.90;;;;;;5040976;28;20035;-76
2022/05/08 00:14:18;;;;;;;17.20;7.35;;;14.70;99.90;;;;;;5042451;28;20013;-76
2022/05/08 00:16:44;;;;;;;14.63;5.80;;;14.70;99.90;;;;;;5042870;28;20040;-77
2022/05/08 00:19:09;;;;;;;14.55;7.00;;;14.70;99.90;;;;;;5040666;28;20337;-76
2022/05/08 00:21:35;;;;;;;16.13;6.70;;;14.70;99.90;;;;;;5042091;28;20064;-76
2022/05/08 00:24:01;;;;;;;20.90;6.63;;;14.70;99.90;;;;;;5042610;28;20092;-76
2022/05/08 00:26:26;;;;;;;12.98;6.22;;;14.60;99.90;;;;;;5042198;28;20020;-75
2022/05/08 00:28:52;;;;;;;14.88;7.00;;;14.60;99.90;;;;;;5046645;28;20169;-75
2022/05/08 00:31:18;;;;;;;15.23;6.95;;;14.60;99.90;;;;;;5046221;28;20022;-76
2022/05/08 00:33:44;;;;;;;20.10;7.20;;;14.70;99.90;;;;;;5045038;28;20043;-76
2022/05/08 00:36:09;;;;;;;14.50;6.65;;;14.60;99.90;;;;;;5046860;28;20031;-76
2022/05/08 00:38:36;;;;;;;16.75;7.95;;;14.50;99.90;;;;;;5045322;28;20029;-76
2022/05/08 00:41:01;;;;;;;19.27;7.47;;;14.60;99.90;;;;;;5045058;28;20045;-76
2022/05/08 00:43:32;;;;;;;24.23;8.15;;;14.50;99.90;;;;;;5047055;28;20028;-76
2022/05/08 00:46:04;;;;;;;25.08;7.40;;;14.50;99.90;;;;;;5045830;28;20104;-76
2022/05/08 00:48:30;;;;;;;29.40;7.87;;;14.50;99.90;;;;;;5044705;28;20044;-77
2022/05/08 00:50:56;;;;;;;26.73;8.18;;;14.50;99.90;;;;;;5045787;28;20250;-76
2022/05/08 00:53:25;;;;;;;27.83;8.35;;;14.50;99.90;;;;;;5045798;28;20096;-76
2022/05/08 00:55:51;;;;;;;22.00;7.50;;;14.50;99.90;;;;;;5041910;28;20059;-76
2022/05/08 00:58:17;;;;;;;24.63;7.65;;;14.50;99.90;;;;;;5045932;28;20064;-75
2022/05/08 01:00:43;;;;;;;28.10;7.35;;;14.50;99.90;;;;;;5046056;28;20028;-75
2022/05/08 01:03:11;;;;;;;23.58;7.20;;;14.50;99.90;;;;;;5044351;28;20021;-76
2022/05/08 01:05:42;;;;;;;28.70;7.30;;;14.50;99.90;;;;;;5045521;28;20045;-75
2022/05/08 01:08:09;;;;;;;25.10;8.35;;;14.50;99.90;;;;;;5046185;28;20021;-76
2022/05/08 01:10:36;;;;;;;19.23;8.20;;;14.50;99.90;;;;;;5044439;28;20099;-77
2022/05/08 01:13:03;;;;;;;19.92;7.80;;;14.50;99.90;;;;;;5044661;28;20041;-75
2022/05/08 01:15:29;;;;;;;24.48;8.43;;;14.50;99.90;;;;;;5045818;28;20372;-75
2022/05/08 01:17:55;;;;;;;29.92;9.18;;;14.50;99.90;;;;;;5044284;28;20379;-76
2022/05/08 01:20:21;;;;;;;24.40;9.10;;;14.50;99.90;;;;;;5044342;28;20416;-76
2022/05/08 01:22:47;;;;;;;29.95;9.30;;;14.50;99.90;;;;;;5045835;28;20510;-75
2022/05/08 01:25:13;;;;;;;35.03;10.05;;;14.50;99.90;;;;;;5044520;28;20499;-78
2022/05/08 01:27:39;;;;;;;22.17;9.48;;;14.50;99.90;;;;;;5044948;28;20020;-77
2022/05/08 01:30:05;;;;;;;27.58;8.63;;;14.50;99.90;;;;;;5045431;28;20025;-76
2022/05/08 01:32:31;;;;;;;27.50;9.10;;;14.60;99.90;;;;;;5043956;28;20021;-76
2022/05/08 01:34:57;;;;;;;18.15;7.88;;;14.60;99.90;;;;;;5044482;28;20025;-76
2022/05/08 01:37:23;;;;;;;21.35;8.77;;;14.60;99.90;;;;;;5043884;28;20034;-77
2022/05/08 01:39:48;;;;;;;20.00;7.60;;;14.60;99.90;;;;;;5042304;28;20104;-75
2022/05/08 01:42:14;;;;;;;20.90;7.55;;;14.60;99.90;;;;;;5045200;28;20528;-75
2022/05/08 01:44:40;;;;;;;27.38;7.70;;;14.60;99.90;;;;;;5044942;28;20045;-74
2022/05/08 01:49:49;;;;;;;19.17;8.32;;;14.60;99.90;;;;;;5045045;28;20062;-77
2022/05/08 01:52:15;;;;;;;22.40;7.60;;;14.60;99.90;;;;;;5044077;28;20048;-76
2022/05/08 01:54:41;;;;;;;18.00;6.90;;;14.50;99.90;;;;;;5044285;28;20100;-77
2022/05/08 01:57:07;;;;;;;22.27;7.07;;;14.50;99.90;;;;;;5044852;28;20095;-76
2022/05/08 01:59:32;;;;;;;15.23;6.63;;;14.50;99.90;;;;;;5043617;28;20109;-76
2022/05/08 02:01:58;;;;;;;21.13;7.93;;;14.40;99.90;;;;;;5044416;28;20103;-75
2022/05/08 02:04:24;;;;;;;18.42;7.50;;;14.40;99.90;;;;;;5044905;28;20029;-76
2022/05/08 02:06:50;;;;;;;17.77;7.30;;;14.40;99.90;;;;;;5042843;28;20022;-76
2022/05/08 02:09:15;;;;;;;22.45;7.68;;;14.30;99.90;;;;;;5044374;28;20021;-76
2022/05/08 02:11:41;;;;;;;16.00;7.50;;;14.30;99.90;;;;;;5044796;28;20167;-76
2022/05/08 02:14:07;;;;;;;19.08;6.97;;;14.30;99.90;;;;;;5042917;28;20095;-75
2022/05/08 02:16:33;;;;;;;16.75;8.13;;;14.20;99.90;;;;;;5044976;28;20023;-76
2022/05/08 02:18:58;;;;;;;18.33;7.72;;;14.20;99.90;;;;;;5043672;28;20033;-76
2022/05/08 02:21:25;;;;;;;17.55;8.07;;;14.20;99.90;;;;;;5043130;28;20013;-76
2022/05/08 02:23:51;;;;;;;20.85;8.10;;;14.20;99.90;;;;;;5040121;28;20097;-75
2022/05/08 02:26:17;;;;;;;24.67;9.48;;;14.20;99.90;;;;;;5043869;28;20104;-75
2022/05/08 02:28:42;;;;;;;22.83;8.10;;;14.10;99.90;;;;;;5044252;28;20030;-75
2022/05/08 02:31:08;;;;;;;19.85;8.15;;;14.20;99.90;;;;;;5042866;28;20049;-77
2022/05/08 02:33:34;;;;;;;15.45;7.90;;;14.20;99.90;;;;;;5043138;28;20044;-76
2022/05/08 02:35:59;;;;;;;18.10;8.30;;;14.20;99.90;;;;;;5042528;28;20499;-75
2022/05/08 02:38:25;;;;;;;16.85;8.18;;;14.20;99.90;;;;;;5042805;28;20025;-75
2022/05/08 02:40:51;;;;;;;15.20;8.13;;;14.20;99.90;;;;;;5044274;28;20430;-75
2022/05/08 02:43:20;;;;;;;17.17;8.48;;;14.20;99.90;;;;;;5043742;28;20021;-75
2022/05/08 02:45:49;;;;;;;16.58;7.93;;;14.20;99.90;;;;;;5042264;28;20533;-75
2022/05/08 02:48:15;;;;;;;23.95;9.00;;;14.20;99.90;;;;;;5043758;28;20021;-76
2022/05/08 02:50:41;;;;;;;17.52;9.20;;;14.30;99.90;;;;;;5043586;28;20032;-76
2022/05/08 02:53:07;;;;;;;27.15;9.63;;;14.30;99.90;;;;;;5041839;28;20049;-77
2022/05/08 02:58:34;;;;;;;21.13;10.15;;;14.20;99.90;;;;;;5040801;28;20088;-75
2022/05/08 03:01:07;;;;;;;17.60;9.55;;;14.20;99.90;;;;;;5041897;28;20029;-77
2022/05/08 03:03:34;;;;;;;21.10;10.27;;;14.10;99.90;;;;;;5039850;28;20021;-76
2022/05/08 03:06:00;;;;;;;24.52;10.57;;;14.10;99.90;;;;;;5042832;28;20025;-75
2022/05/08 03:08:26;;;;;;;16.85;9.23;;;14.10;99.90;;;;;;5044082;28;20031;-76
2022/05/08 03:13:38;;;;;;;17.30;9.70;;;14.00;99.90;;;;;;5040425;28;20075;-76
2022/05/08 03:16:04;;;;;;;18.25;9.15;;;14.00;99.90;;;;;;5042561;28;20033;-76
2022/05/08 03:18:30;;;;;;;21.42;8.85;;;14.00;99.90;;;;;;5034264;28;20025;-76
2022/05/08 03:20:56;;;;;;;23.17;9.52;;;13.90;99.90;;;;;;5034156;28;20025;-76
2022/05/08 03:23:22;;;;;;;19.20;10.45;;;14.00;99.90;;;;;;5034166;28;20025;-76
2022/05/08 03:25:48;;;;;;;18.63;9.68;;;13.90;99.90;;;;;;5034264;28;20029;-76
2022/05/08 03:28:18;;;;;;;18.60;10.13;;;13.90;99.90;;;;;;5033634;28;20031;-75
2022/05/08 03:30:44;;;;;;;20.58;9.30;;;13.90;99.90;;;;;;5034216;28;20021;-75
2022/05/08 03:33:10;;;;;;;21.00;9.90;;;13.90;99.90;;;;;;5033929;28;20021;-75
2022/05/08 03:35:37;;;;;;;24.95;10.70;;;13.90;99.90;;;;;;5033680;28;20021;-75
2022/05/08 03:38:03;;;;;;;21.17;10.13;;;13.90;99.90;;;;;;5033591;28;20025;-76
2022/05/08 03:40:29;;;;;;;15.82;9.45;;;13.80;99.90;;;;;;5034148;28;20476;-75
2022/05/08 03:42:55;;;;;;;20.70;10.75;;;13.80;99.90;;;;;;5033819;28;20021;-74
2022/05/08 03:45:21;;;;;;;22.58;11.55;;;13.80;99.90;;;;;;5033554;28;20036;-74
2022/05/08 03:47:51;;;;;;;23.35;12.20;;;13.70;99.90;;;;;;5032573;28;20030;-76
2022/05/08 03:50:19;;;;;;;27.98;12.27;;;13.70;99.90;;;;;;5032812;28;20047;-75
2022/05/08 03:52:45;;;;;;;27.52;13.20;;;13.70;99.90;;;;;;5031462;28;20048;-76
2022/05/08 03:55:11;;;;;;;47.83;23.23;;;13.70;99.90;;;;;;5033072;28;20028;-76
2022/05/08 03:57:37;;;;;;;46.67;23.95;;;13.70;99.90;;;;;;5033537;28;20025;-75
2022/05/08 04:00:04;;;;;;;49.00;27.88;;;13.70;99.90;;;;;;5033972;28;20067;-75
2022/05/08 04:02:30;;;;;;;54.03;27.05;;;13.80;99.90;;;;;;5032994;28;20433;-76
2022/05/08 04:04:56;;;;;;;34.40;19.70;;;13.80;99.90;;;;;;5033060;28;20021;-75
2022/05/08 04:07:22;;;;;;;30.40;17.05;;;13.80;99.90;;;;;;5033383;28;20047;-75
2022/05/08 04:09:47;;;;;;;33.22;17.10;;;13.80;99.90;;;;;;5033469;28;20456;-74
2022/05/08 04:12:13;;;;;;;27.15;14.98;;;13.90;99.90;;;;;;5033463;28;20068;-75
2022/05/08 04:14:39;;;;;;;27.70;13.55;;;13.90;99.90;;;;;;5033531;28;20021;-74
2022/05/08 04:17:04;;;;;;;21.92;13.38;;;13.90;99.90;;;;;;5032787;28;20025;-75
2022/05/08 04:19:30;;;;;;;21.20;13.00;;;13.90;99.90;;;;;;5033356;28;20093;-75
2022/05/08 04:24:43;;;;;;;24.08;11.70;;;14.10;99.90;;;;;;5033127;28;20440;-74
2022/05/08 04:27:09;;;;;;;20.52;11.35;;;14.10;99.90;;;;;;5033419;28;20021;-75
2022/05/08 04:29:34;;;;;;;17.98;11.80;;;14.20;99.90;;;;;;5032101;28;20030;-74
2022/05/08 04:32:00;;;;;;;29.30;12.20;;;14.20;99.90;;;;;;5042816;28;20032;-75
2022/05/08 04:34:26;;;;;;;20.77;9.07;;;14.30;99.90;;;;;;5052840;28;20096;-76
2022/05/08 04:36:52;;;;;;;21.75;10.80;;;14.30;99.90;;;;;;5052755;28;20029;-74
2022/05/08 04:39:17;;;;;;;18.98;10.25;;;14.40;99.90;;;;;;5053177;28;20108;-75
2022/05/08 04:41:43;;;;;;;20.25;10.15;;;14.50;99.90;;;;;;5052769;28;20130;-75
2022/05/08 04:44:09;;;;;;;17.60;9.05;;;14.50;99.90;;;;;;5053046;28;20028;-76
2022/05/08 04:46:35;;;;;;;21.42;10.07;;;14.60;99.90;;;;;;5053030;28;20029;-75
2022/05/08 04:49:01;;;;;;;23.15;8.45;;;14.70;99.90;;;;;;5044370;28;20151;-76
2022/05/08 04:51:26;;;;;;;17.40;8.65;;;14.70;99.90;;;;;;5041896;28;20044;-75
2022/05/08 04:53:52;;;;;;;23.63;10.27;;;14.70;99.90;;;;;;5042711;28;20054;-76
2022/05/08 04:56:18;;;;;;;18.30;9.27;;;14.80;99.90;;;;;;5043753;28;20021;-76
2022/05/08 04:58:44;;;;;;;15.63;7.88;;;14.90;99.90;;;;;;5041181;28;20076;-77
2022/05/08 05:01:10;;;;;;;19.45;8.55;;;15.00;99.90;;;;;;5043005;28;20024;-75
2022/05/08 05:03:37;;;;;;;17.98;7.78;;;15.00;99.90;;;;;;5043322;28;20014;-74
2022/05/08 05:06:03;;;;;;;20.80;7.75;;;15.10;99.90;;;;;;5040692;28;20017;-74
2022/05/08 05:08:28;;;;;;;19.45;7.63;;;15.20;99.90;;;;;;5032803;28;20372;-75
2022/05/08 05:10:54;;;;;;;14.23;6.97;;;15.20;99.90;;;;;;5033224;28;20057;-75
2022/05/08 05:13:20;;;;;;;16.92;6.38;;;15.20;99.90;;;;;;5034125;28;20100;-75
2022/05/08 05:15:46;;;;;;;14.05;5.50;;;15.30;97.40;;;;;;5036905;28;20060;-75
2022/05/08 05:18:11;;;;;;;14.00;5.50;;;15.40;96.10;;;;;;5036352;28;20534;-75
2022/05/08 05:20:37;;;;;;;15.50;5.90;;;15.40;94.20;;;;;;5036449;28;20467;-74
2022/05/08 05:23:04;;;;;;;13.07;5.55;;;15.40;93.50;;;;;;5036509;28;20029;-76
2022/05/08 05:25:29;;;;;;;12.60;5.93;;;15.50;94.20;;;;;;5036246;28;20021;-73
2022/05/08 05:27:56;;;;;;;14.20;5.70;;;15.60;94.20;;;;;;5041487;28;20032;-76
2022/05/08 05:30:22;;;;;;;15.10;5.50;;;15.60;93.60;;;;;;5044154;28;20044;-76
2022/05/08 05:32:48;;;;;;;13.13;5.28;;;15.60;91.00;;;;;;5046889;28;20016;-75
2022/05/08 05:35:14;;;;;;;16.58;5.70;;;15.70;92.40;;;;;;5048559;28;20452;-75
2022/05/08 05:37:40;;;;;;;13.60;5.82;;;15.80;94.40;;;;;;5047684;28;20374;-76
2022/05/08 05:40:09;;;;;;;15.25;6.00;;;15.90;95.10;;;;;;5053455;28;20021;-74
2022/05/08 05:42:35;;;;;;;14.30;5.60;;;16.00;94.20;;;;;;5046101;28;20017;-75
2022/05/08 05:45:00;;;;;;;14.57;6.70;;;16.10;95.80;;;;;;5044467;28;20045;-75
2022/05/08 05:50:11;;;;;;;16.73;6.25;;;16.20;91.90;;;;;;5035768;28;20376;-74
2022/05/08 05:52:37;;;;;;;16.45;5.68;;;16.30;90.60;;;;;;5036072;28;20030;-73
2022/05/08 05:55:06;;;;;;;17.73;5.45;;;16.40;89.30;;;;;;5036047;28;20029;-77
2022/05/08 05:57:33;;;;;;;14.45;5.75;;;16.50;88.50;;;;;;5035539;28;20021;-75
2022/05/08 05:59:59;;;;;;;13.95;6.03;;;16.60;83.80;;;;;;5041329;28;20072;-76
2022/05/08 06:02:25;;;;;;;12.13;5.65;;;16.70;84.80;;;;;;5044186;28;20025;-75
2022/05/08 06:04:50;;;;;;;11.45;5.50;;;16.80;83.00;;;;;;5044575;28;20021;-75
2022/05/08 06:07:16;;;;;;;15.23;5.63;;;16.90;81.40;;;;;;5045511;28;20084;-75
2022/05/08 06:09:42;;;;;;;11.75;5.05;;;17.00;80.90;;;;;;5043291;28;20021;-75
2022/05/08 06:12:08;;;;;;;8.80;4.82;;;17.10;78.40;;;;;;5044796;28;20013;-75
2022/05/08 06:14:34;;;;;;;17.95;5.00;;;17.10;79.80;;;;;;5045219;28;20017;-75
2022/05/08 06:17:00;;;;;;;11.85;6.15;;;17.20;78.30;;;;;;5043747;28;20017;-76
2022/05/08 06:19:25;;;;;;;12.07;4.40;;;17.30;78.10;;;;;;5045729;28;20025;-74
2022/05/08 06:21:52;;;;;;;12.38;5.93;;;17.30;78.90;;;;;;5044653;28;20017;-74
2022/05/08 06:24:18;;;;;;;9.43;4.85;;;17.40;78.70;;;;;;5043531;28;20097;-75
2022/05/08 06:26:44;;;;;;;15.48;4.78;;;17.50;80.80;;;;;;5040643;28;20021;-74
2022/05/08 06:29:09;;;;;;;23.45;6.68;;;17.60;76.90;;;;;;5044167;28;20096;-72
2022/05/08 06:31:35;;;;;;;14.10;5.55;;;17.70;76.20;;;;;;5045172;28;20013;-73
2022/05/08 06:34:01;;;;;;;11.98;5.68;;;17.80;76.70;;;;;;5048591;28;20477;-72
2022/05/08 06:36:27;;;;;;;13.75;5.97;;;17.90;75.40;;;;;;5054865;28;20155;-72
2022/05/08 06:38:53;;;;;;;12.93;5.63;;;18.10;73.50;;;;;;5051006;28;20033;-73
2022/05/08 06:41:19;;;;;;;12.98;5.18;;;18.20;74.30;;;;;;5043907;28;20034;-72
2022/05/08 06:43:45;;;;;;;22.30;6.03;;;18.40;75.40;;;;;;5043878;28;20083;-74
2022/05/08 06:46:11;;;;;;;17.70;5.60;;;18.40;72.90;;;;;;5044663;28;20033;-72
2022/05/08 06:48:38;;;;;;;14.90;5.07;;;18.50;73.30;;;;;;5036693;28;20033;-75
2022/05/08 06:51:04;;;;;;;10.98;5.32;;;18.50;72.70;;;;;;5042165;28;20375;-74
2022/05/08 06:53:31;;;;;;;10.95;5.32;;;18.60;72.50;;;;;;5045468;28;20021;-76
2022/05/08 06:55:56;;;;;;;12.38;5.43;;;18.60;72.50;;;;;;5041026;28;20028;-75
2022/05/08 07:01:34;;;;;;;10.23;5.25;;;18.60;70.10;;;;;;5039761;28;20430;-76
2022/05/08 07:01:36;;;;;;;12.50;5.32;;;18.70;71.10;;;;;;5039813;28;20013;-73
2022/05/08 07:04:10;;;;;;;13.70;5.28;;;19.00;72.10;;;;;;5043294;28;20025;-74
2022/05/08 07:06:37;;;;;;;14.90;5.68;;;19.00;70.40;;;;;;5034827;28;20105;-73
2022/05/08 07:09:04;;;;;;;11.23;5.25;;;18.90;70.40;;;;;;5034207;28;20072;-73
2022/05/08 07:11:30;;;;;;;9.45;5.03;;;19.10;72.30;;;;;;5034593;28;20080;-72
2022/05/08 07:13:57;;;;;;;12.85;5.55;;;19.30;68.30;;;;;;5034122;28;20448;-73
2022/05/08 07:16:23;;;;;;;13.57;5.10;;;19.50;69.20;;;;;;5034225;28;20112;-72
2022/05/08 07:18:49;;;;;;;14.20;4.82;;;19.80;66.50;;;;;;5034215;28;20112;-73
2022/05/08 07:21:15;;;;;;;13.88;4.85;;;19.80;64.80;;;;;;5034036;28;20060;-73
2022/05/08 07:23:41;;;;;;;12.30;5.07;;;20.00;67.60;;;;;;5034114;28;20041;-74
2022/05/08 07:26:07;;;;;;;7.97;5.00;;;20.10;62.70;;;;;;5033977;28;20113;-73
2022/05/08 07:28:33;;;;;;;11.30;4.70;;;20.30;64.00;;;;;;5034082;28;20030;-74
2022/05/08 07:30:59;;;;;;;14.25;4.78;;;20.40;61.20;;;;;;5033957;28;20064;-73
2022/05/08 07:33:25;;;;;;;11.23;5.63;;;20.60;63.20;;;;;;5038779;28;20064;-75
2022/05/08 07:38:35;;;;;;;13.32;4.90;;;20.90;60.10;;;;;;5054087;28;20479;-74
2022/05/08 07:41:02;;;;;;;12.65;5.55;;;21.10;61.10;;;;;;5053552;28;20045;-74
2022/05/08 07:43:27;;;;;;;8.73;5.03;;;21.20;62.10;;;;;;5053989;28;20353;-73
2022/05/08 07:45:53;;;;;;;17.98;5.55;;;21.30;59.60;;;;;;5053711;28;20029;-73
2022/05/08 07:48:19;;;;;;;11.45;4.97;;;21.30;58.50;;;;;;5052951;28;20025;-74
2022/05/08 07:50:46;;;;;;;12.18;4.97;;;21.50;58.80;;;;;;5051760;28;20021;-74
2022/05/08 07:53:15;;;;;;;10.32;5.80;;;21.50;58.30;;;;;;5053460;28;20013;-74
2022/05/08 07:55:41;;;;;;;8.73;5.57;;;21.70;57.70;;;;;;5040322;28;20082;-74
2022/05/08 07:58:09;;;;;;;16.83;5.78;;;21.70;56.60;;;;;;5033888;28;20033;-74
2022/05/08 08:00:36;;;;;;;16.60;6.53;;;21.80;57.80;;;;;;5033503;28;20164;-75
2022/05/08 08:03:03;;;;;;;14.27;5.90;;;21.90;59.00;;;;;;5033263;28;20470;-74
2022/05/08 08:05:29;;;;;;;14.30;5.07;;;21.90;57.30;;;;;;5033391;28;20452;-71
2022/05/08 08:07:55;;;;;;;16.33;5.72;;;22.00;55.10;;;;;;5033322;28;20036;-73
2022/05/08 08:10:21;;;;;;;10.43;5.80;;;21.90;55.00;;;;;;5033680;28;20029;-74
2022/05/08 08:12:47;;;;;;;8.55;5.25;;;22.00;55.60;;;;;;5033469;28;20093;-71
2022/05/08 08:15:12;;;;;;;11.98;5.45;;;22.00;55.60;;;;;;5033468;28;20510;-72
2022/05/08 08:17:39;;;;;;;14.02;5.65;;;22.00;54.40;;;;;;5033345;28;20032;-72
2022/05/08 08:20:06;;;;;;;10.52;5.80;;;22.10;54.90;;;;;;5033601;28;20030;-73
2022/05/08 08:22:33;;;;;;;10.38;5.72;;;22.20;55.30;;;;;;5033478;28;20021;-71
2022/05/08 08:25:00;;;;;;;12.63;6.25;;;22.30;55.00;;;;;;5033846;28;20037;-72
2022/05/08 08:27:26;;;;;;;6.95;6.03;;;22.50;55.40;;;;;;5033019;28;20108;-73
2022/05/08 08:29:54;;;;;;;8.80;5.78;;;22.70;56.30;;;;;;5032102;28;20433;-72
2022/05/08 08:32:21;;;;;;;13.02;5.85;;;22.90;55.00;;;;;;5033727;28;20030;-73
2022/05/08 08:34:48;;;;;;;18.38;7.22;;;22.90;54.60;;;;;;5033318;28;20460;-71
2022/05/08 08:37:13;;;;;;;13.25;6.70;;;23.00;54.10;;;;;;5034123;28;20048;-73
2022/05/08 08:39:39;;;;;;;13.38;6.47;;;23.00;53.20;;;;;;5032239;28;20116;-73
2022/05/08 08:42:31;;;;;;;12.90;6.47;;;23.00;53.50;;;;;;5032834;28;20515;-72
2022/05/08 08:48:11;;;;;;;13.38;7.13;;;23.10;54.30;;;;;;5035129;28;20043;-72
2022/05/08 08:50:37;;;;;;;12.55;7.93;;;23.20;53.30;;;;;;5034699;28;20087;-73
2022/05/08 08:53:04;;;;;;;17.45;8.05;;;23.50;55.10;;;;;;5037127;28;20026;-72
2022/05/08 08:55:31;;;;;;;13.82;6.72;;;23.70;54.50;;;;;;5037170;28;20022;-72
2022/05/08 08:57:57;;;;;;;14.07;6.95;;;;;;;;;;5036461;28;20478;-73
2022/05/08 09:00:23;;;;;;;11.68;7.43;;;23.90;53.50;;;;;;5036887;28;20028;-74
2022/05/08 09:02:52;;;;;;;11.45;7.78;;;;;;;;;;5036777;28;20467;-73
2022/05/08 09:05:18;;;;;;;12.80;7.03;;;;;;;;;;5039167;28;20009;-73
2022/05/08 09:07:48;;;;;;;12.07;7.82;;;;;;;;;;5054702;28;20029;-74
2022/05/08 09:10:25;;;;;;;14.55;7.70;;;;;;;;;;5056270;28;20021;-73
2022/05/08 09:12:56;;;;;;;16.27;8.07;;;;;;;;;;5056403;28;20017;-72
2022/05/08 09:15:28;;;;;;;14.80;8.35;;;;;;;;;;5056500;28;20119;-73
2022/05/08 09:17:59;;;;;;;11.57;7.07;;;;;;;;;;5056443;28;20032;-73
2022/05/08 09:20:31;;;;;;;13.80;8.65;;;;;;;;;;5056545;28;20023;-73
2022/05/08 09:23:05;;;;;;;10.50;7.15;;;;;;;;;;5056271;28;20016;-73
2022/05/08 09:25:44;;;;;;;11.30;7.05;;;;;;;;;;5055992;28;20470;-73
2022/05/08 09:28:13;;;;;;;13.77;7.32;;;;;;;;;;5056247;28;20025;-74
2022/05/08 09:30:59;;;;;;;11.60;7.45;;;;;;;;;;5055593;28;20032;-73
2022/05/08 09:33:40;;;;;;;13.90;7.97;;;;;;;;;;5056262;28;20463;-72
2022/05/08 09:36:07;;;;;;;12.55;8.10;;;;;;;;;;5055943;28;20406;-73
2022/05/08 09:39:00;;;;;;;15.43;8.40;;;;;;;;;;5056172;28;20033;-74
2022/05/08 09:41:27;;;;;;;8.88;6.85;;;;;;;;;;5054817;28;20041;-74
2022/05/08 09:43:54;;;;;;;14.52;7.60;;;;;;;;;;5056222;28;20021;-73
2022/05/08 09:46:21;;;;;;;12.23;7.20;;;;;;;;;;5055919;28;20013;-73
2022/05/08 09:48:48;;;;;;;11.70;7.20;;;;;;;;;;5055525;28;20021;-74
2022/05/08 09:51:15;;;;;;;13.48;7.20;;;;;;;;;;5055751;28;20021;-74
2022/05/08 09:53:42;;;;;;;11.77;6.65;;;;;;;;;;5055502;28;20017;-74
2022/05/08 09:56:09;;;;;;;12.85;6.13;;;;;;;;;;5025811;28;20022;-75
2022/05/08 09:58:36;;;;;;;14.27;5.75;;;;;;;;;;5015551;28;20562;-75
2022/05/08 10:01:03;;;;;;;10.57;5.75;;;;;;;;;;5016067;28;20018;-74
2022/05/08 10:03:30;;;;;;;17.00;6.72;;;;;;;;;;5029738;28;20045;-75
2022/05/08 10:05:59;;;;;;;11.52;6.35;;;;;;;;;;5035596;28;20057;-74
2022/05/08 10:08:27;;;;;;;9.35;6.22;;;;;;;;;;5035520;28;20031;-75
2022/05/08 10:16:40;;;;;;;13.40;5.75;;;;;;;;;;5035629;28;20022;-74
2022/05/08 10:19:18;;;;;;;12.35;6.25;;;;;;;;;;5035240;28;20429;-74
2022/05/08 10:21:56;;;;;;;10.98;5.43;;;;;;;;;;5031631;28;20479;-75
2022/05/08 10:24:34;;;;;;;10.57;5.13;;;;;;;;;;5015577;28;20050;-77
2022/05/08 10:27:10;;;;;;;13.73;5.60;;;;;;;;;;5015454;28;20010;-74
2022/05/08 10:29:37;;;;;;;13.45;7.45;;;;;;;;;;5015599;28;20033;-75
2022/05/08 10:32:06;;;;;;;21.35;10.73;;;;;;;;;;5015801;28;20033;-74
2022/05/08 10:34:34;;;;;;;18.85;5.35;;;;;;;;;;5019814;28;20025;-74
2022/05/08 10:37:12;;;;;;;12.32;5.88;;;;;;;;;;5035110;28;20013;-74
2022/05/08 10:39:42;;;;;;;17.25;6.00;;;;;;;;;;5028759;28;20464;-74
2022/05/08 10:42:27;;;;;;;17.27;6.15;;;;;;;;;;5014622;28;20087;-74
2022/05/08 10:44:53;;;;;;;16.20;5.90;;;;;;;;;;5034157;28;20111;-75
2022/05/08 10:47:37;;;;;;;11.32;6.13;;;;;;;;;;5034700;28;20016;-74
2022/05/08 10:50:09;;;;;;;10.90;5.97;;;;;;;;;;5034995;28;20043;-74
2022/05/08 10:52:42;;;;;;;8.32;5.68;;;;;;;;;;5035072;28;20022;-73
2022/05/08 10:55:12;;;;;;;15.18;6.07;;;;;;;;;;5034427;28;20021;-75
2022/05/08 10:57:39;;;;;;;11.98;8.15;;;;;;;;;;5034741;28;20017;-75
2022/05/08 11:00:09;;;;;;;11.43;5.70;;;;;;;;;;5034769;28;20021;-75
2022/05/08 11:02:44;;;;;;;13.35;5.45;;;;;;;;;;5034582;28;20036;-74
2022/05/08 11:05:11;;;;;;;10.57;5.70;;;;;;;;;;5034543;28;20039;-75
2022/05/08 11:07:47;;;;;;;10.63;5.90;;;;;;;;;;5034628;28;20075;-76
2022/05/08 11:10:15;;;;;;;12.13;6.20;;;;;;;;;;5033484;28;20040;-74
2022/05/08 11:13:03;;;;;;;12.13;7.15;;;;;;;;;;5034590;28;20100;-75
2022/05/08 11:15:30;;;;;;;10.50;6.72;;;;;;;;;;5034855;28;20014;-75
2022/05/08 11:18:07;;;;;;;11.15;5.90;;;;;;;;;;5033995;28;20529;-75
2022/05/08 11:20:36;;;;;;;14.50;6.43;;;;;;;;;;5028090;28;20057;-75
2022/05/08 11:23:04;;;;;;;13.95;6.38;;;;;;;;;;5029407;28;20020;-76
2022/05/08 11:25:30;;;;;;;6.80;6.00;;;;;;;;;;5034093;28;20523;-73
2022/05/08 11:27:58;;;;;;;13.80;6.78;;;;;;;;;;5033895;28;20087;-75
2022/05/08 11:30:28;;;;;;;9.57;6.55;;;;;;;;;;5034253;28;20029;-75
2022/05/08 11:38:23;;;;;;;11.63;7.22;;;;;;;;;;5033760;28;20036;-75
2022/05/08 11:40:51;;;;;;;12.07;6.68;;;;;;;;;;5034036;28;20048;-75
2022/05/08 11:43:35;;;;;;;12.88;6.75;;;;;;;;;;5033955;28;20017;-75
2022/05/08 11:46:01;;;;;;;13.05;6.95;;;;;;;;;;5033734;28;20014;-75
2022/05/08 11:48:40;;;;;;;13.13;6.72;;;;;;;;;;5033555;28;20025;-75
2022/05/08 11:51:07;;;;;;;9.30;6.57;;;;;;;;;;5033705;28;20091;-73
2022/05/08 11:53:40;;;;;;;9.73;6.47;;;;;;;;;;5033923;28;20018;-73
2022/05/08 11:56:25;;;;;;;12.70;6.60;;;;;;;;;;5033891;28;20088;-73
2022/05/08 11:58:54;;;;;;;11.13;6.97;;;;;;;;;;5033951;28;20087;-73
2022/05/08 12:01:22;;;;;;;8.30;6.60;;;;;;;;;;5033773;28;20495;-74
2022/05/08 12:03:48;;;;;;;11.65;6.80;;;;;;;;;;5027624;28;20410;-73
2022/05/08 12:06:14;;;;;;;10.35;6.85;;;;;;;;;;5013612;28;20117;-74
2022/05/08 12:08:41;;;;;;;9.27;6.90;;;;;;;;;;5012392;28;20025;-74
2022/05/08 12:11:07;;;;;;;12.60;6.45;;;;;;;;;;5013954;28;20018;-73
2022/05/08 12:13:36;;;;;;;8.43;6.80;;;;;;;;;;5013540;28;20092;-74
2022/05/08 12:16:12;;;;;;;9.80;6.85;;;;;;;;;;5013911;28;20045;-74
2022/05/08 12:18:58;;;;;;;11.75;7.10;;;;;;;;;;5013794;28;20435;-73
2022/05/08 12:21:28;;;;;;;7.72;6.40;;;;;;;;;;5014058;28;20018;-74
2022/05/08 12:23:54;;;;;;;10.40;6.68;;;;;;;;;;5016969;28;20013;-75
2022/05/08 12:26:20;;;;;;;10.52;6.25;;;;;;;;;;5017608;28;20022;-74
2022/05/08 12:28:46;;;;;;;11.32;7.00;;;;;;;;;;5017350;28;20025;-74
2022/05/08 12:31:12;;;;;;;10.82;6.50;;;;;;;;;;5017614;28;20021;-74
2022/05/08 12:33:38;;;;;;;14.10;6.70;;;;;;;;;;5017618;28;20514;-75
2022/05/08 12:36:04;;;;;;;15.88;6.30;;;;;;;;;;5014888;28;20356;-74
2022/05/08 12:38:31;;;;;;;10.00;6.45;;;;;;;;;;5016966;28;20021;-75
2022/05/08 12:40:58;;;;;;;9.38;7.40;;;;;;;;;;5016248;28;20042;-75
2022/05/08 12:43:24;;;;;;;9.40;6.60;;;;;;;;;;5016656;28;20445;-75
2022/05/08 12:45:51;;;;;;;10.50;6.15;;;;;;;;;;5016450;28;20439;-74
2022/05/08 12:48:21;;;;;;;12.20;6.82;;;;;;;;;;5016605;28;20022;-75
2022/05/08 12:50:48;;;;;;;7.75;6.95;;;;;;;;;;5016588;28;20079;-75
2022/05/08 12:53:14;;;;;;;13.07;7.38;;;;;;;;;;5016423;28;20392;-75
2022/05/08 12:55:40;;;;;;;14.15;8.43;;;;;;;;;;5016388;28;20018;-74
2022/05/08 13:00:52;;;;;;;11.90;7.07;;;;;;;;;;5016244;28;20394;-74
2022/05/08 13:03:18;;;;;;;11.38;7.90;;;;;;;;;;5016642;28;20029;-74
2022/05/08 13:05:44;;;;;;;7.93;6.55;;;;;;;;;;5016266;28;20369;-74
2022/05/08 13:08:10;;;;;;;13.85;8.18;;;;;;;;;;5016242;28;20018;-74
2022/05/08 13:10:36;;;;;;;11.63;7.88;;;;;;;;;;5015666;28;20022;-74
2022/05/08 13:13:02;;;;;;;13.60;7.50;;;;;;;;;;5014995;28;20346;-74
2022/05/08 13:15:29;;;;;;;16.42;7.32;;;;;;;;;;5016006;28;20021;-75
2022/05/08 13:17:55;;;;;;;10.48;7.00;;;;;;;;;;5016501;28;20097;-75
2022/05/08 13:20:21;;;;;;;14.95;7.05;;;;;;;;;;5016342;28;20041;-75
2022/05/08 13:22:47;;;;;;;10.82;6.70;;;;;;;;;;5014900;28;20357;-75
2022/05/08 13:25:13;;;;;;;8.80;7.00;;;;;;;;;;5016303;28;20457;-75
2022/05/08 13:27:39;;;;;;;9.27;7.38;;;;;;;;;;5015855;28;20026;-75
2022/05/08 13:30:07;;;;;;;13.88;7.47;;;;;;;;;;5016188;28;20449;-74
2022/05/08 13:32:36;;;;;;;8.00;7.20;;;;;;;;;;5015407;28;20025;-74
2022/05/08 13:35:02;;;;;;;11.55;7.68;;;;;;;;;;5015275;28;20022;-75
2022/05/08 13:37:30;;;;;;;8.63;7.18;;;;;;;;;;5015256;28;20108;-74
2022/05/08 13:39:59;;;;;;;8.88;6.88;;;;;;;;;;5015606;28;20334;-74
2022/05/08 13:42:25;;;;;;;11.35;6.93;;;;;;;;;;5015861;28;20108;-74
2022/05/08 13:44:55;;;;;;;11.43;7.53;;;;;;;;;;5015452;28;20084;-74
2022/05/08 13:47:22;;;;;;;8.85;6.85;;;;;;;;;;5015678;28;20037;-74
2022/05/08 13:49:48;;;;;;;9.60;7.78;;;;;;;;;;5015316;28;20057;-74